createdAt,value
2022-10-08T00:01:51.604Z,100.00
2022-10-08T00:04:18.136Z,100.00
2022-10-08T00:06:44.582Z,100.00
2022-10-08T00:09:10.944Z,100.00
2022-10-08T00:11:39.753Z,100.00
2022-10-08T00:14:06.574Z,100.00
2022-10-08T00:16:36.427Z,100.00
2022-10-08T00:19:14.201Z,100.00
2022-10-08T00:21:43.775Z,100.00
2022-10-08T00:24:15.009Z,100.00
2022-10-08T00:26:44.048Z,100.00
2022-10-08T00:29:13.536Z,100.00
2022-10-08T00:31:41.689Z,100.00
2022-10-08T00:34:10.815Z,100.00
2022-10-08T00:36:39.192Z,100.00
2022-10-08T00:39:15.417Z,100.00
2022-10-08T00:41:44.763Z,100.00
2022-10-08T00:44:53.954Z,100.00
2022-10-08T00:47:24.531Z,100.00
2022-10-08T00:49:55.226Z,100.00
2022-10-08T00:52:25.021Z,100.00
2022-10-08T00:54:51.805Z,100.00
2022-10-08T00:57:21.129Z,100.00
2022-10-08T00:59:47.576Z,100.00
2022-10-08T01:02:14.534Z,100.00
2022-10-08T01:04:42.924Z,100.00
2022-10-08T01:07:48.137Z,100.00
2022-10-08T01:10:34.744Z,100.00
2022-10-08T01:13:26.233Z,100.00
2022-10-08T01:16:07.700Z,100.00
2022-10-08T01:19:08.105Z,100.00
2022-10-08T01:21:50.065Z,100.00
2022-10-08T01:24:44.808Z,100.00
2022-10-08T01:27:21.574Z,100.00
2022-10-08T01:29:49.139Z,100.00
2022-10-08T01:32:29.015Z,100.00
2022-10-08T01:35:01.165Z,100.00
2022-10-08T01:37:32.768Z,100.00
2022-10-08T01:40:05.221Z,100.00
2022-10-08T01:42:35.236Z,100.00
2022-10-08T01:45:07.387Z,100.00
2022-10-08T01:47:39.499Z,100.00
2022-10-08T01:50:12.811Z,100.00
2022-10-08T01:52:48.354Z,100.00
2022-10-08T01:55:21.528Z,100.00
2022-10-08T01:57:49.616Z,99.89
2022-10-08T02:00:17.635Z,99.45
2022-10-08T02:02:44.319Z,99.60
2022-10-08T02:05:12.066Z,100.00
2022-10-08T02:07:42.320Z,100.00
2022-10-08T02:10:18.474Z,100.00
2022-10-08T02:12:46.026Z,100.00
2022-10-08T02:15:20.108Z,100.00
2022-10-08T02:18:08.823Z,100.00
2022-10-08T02:20:42.206Z,100.00
2022-10-08T02:24:06.050Z,100.00
2022-10-08T02:26:37.569Z,100.00
2022-10-08T02:29:20.472Z,100.00
2022-10-08T02:32:23.636Z,100.00
2022-10-08T02:34:57.651Z,100.00
2022-10-08T02:37:42.470Z,100.00
2022-10-08T02:40:13.072Z,100.00
2022-10-08T02:42:44.759Z,100.00
2022-10-08T02:45:20.825Z,100.00
2022-10-08T02:47:53.741Z,100.00
2022-10-08T02:50:24.427Z,100.00
2022-10-08T02:52:52.457Z,100.00
2022-10-08T02:56:04.508Z,100.00
2022-10-08T02:58:32.044Z,100.00
2022-10-08T03:01:15.126Z,100.00
2022-10-08T03:03:49.072Z,100.00
2022-10-08T03:06:18.169Z,100.00
2022-10-08T03:08:49.117Z,99.99
2022-10-08T03:11:16.542Z,99.69
2022-10-08T03:13:47.031Z,100.00
2022-10-08T03:16:15.796Z,100.00
2022-10-08T03:18:43.548Z,99.69
2022-10-08T03:21:15.807Z,98.92
2022-10-08T03:23:42.232Z,98.72
2022-10-08T03:26:08.638Z,98.45
2022-10-08T03:28:35.060Z,97.64
2022-10-08T03:31:06.175Z,97.74
2022-10-08T03:33:33.613Z,97.71
2022-10-08T03:36:00.028Z,96.78
2022-10-08T03:38:26.395Z,97.09
2022-10-08T03:40:58.634Z,96.77
2022-10-08T03:43:30.559Z,97.73
2022-10-08T03:45:56.980Z,98.04
2022-10-08T03:48:23.601Z,97.97
2022-10-08T03:50:57.853Z,98.19
2022-10-08T03:53:25.333Z,98.71
2022-10-08T03:55:52.920Z,98.80
2022-10-08T03:58:20.100Z,98.48
2022-10-08T04:00:59.777Z,97.40
2022-10-08T04:03:27.194Z,96.64
2022-10-08T04:05:53.724Z,97.18
2022-10-08T04:08:20.687Z,98.08
2022-10-08T04:10:47.077Z,98.02
2022-10-08T04:13:15.381Z,97.37
2022-10-08T04:15:43.327Z,97.60
2022-10-08T04:18:12.806Z,97.05
2022-10-08T04:20:43.217Z,96.79
2022-10-08T04:23:10.457Z,96.23
2022-10-08T04:25:37.378Z,96.01
2022-10-08T04:28:04.930Z,96.72
2022-10-08T04:30:31.993Z,97.28
2022-10-08T04:32:58.936Z,98.11
2022-10-08T04:35:25.637Z,97.36
2022-10-08T04:37:52.048Z,96.74
2022-10-08T04:40:18.439Z,96.91
2022-10-08T04:42:45.157Z,97.12
2022-10-08T04:45:11.758Z,97.10
2022-10-08T04:47:38.126Z,96.69
2022-10-08T04:50:04.852Z,96.45
2022-10-08T04:52:31.948Z,96.25
2022-10-08T04:54:58.320Z,96.41
2022-10-08T04:57:24.723Z,95.99
2022-10-08T05:00:16.433Z,96.34
2022-10-08T05:02:37.630Z,95.94
2022-10-08T05:05:04.467Z,96.73
2022-10-08T05:07:30.890Z,96.45
2022-10-08T05:09:57.328Z,95.38
2022-10-08T05:12:23.754Z,96.12
2022-10-08T05:14:50.153Z,96.04
2022-10-08T05:17:16.518Z,95.41
2022-10-08T05:19:42.933Z,95.32
2022-10-08T05:22:09.337Z,95.51
2022-10-08T05:24:35.774Z,95.44
2022-10-08T05:27:02.166Z,96.41
2022-10-08T05:29:30.197Z,95.81
2022-10-08T05:31:56.786Z,96.08
2022-10-08T05:34:23.406Z,95.66
2022-10-08T05:36:49.850Z,95.30
2022-10-08T05:39:16.429Z,95.80
2022-10-08T05:41:43.045Z,95.80
2022-10-08T05:44:11.017Z,96.02
2022-10-08T05:46:38.547Z,95.95
2022-10-08T05:49:07.261Z,96.67
2022-10-08T05:51:34.088Z,96.49
2022-10-08T05:54:00.647Z,96.96
2022-10-08T05:56:28.269Z,96.92
2022-10-08T05:58:54.827Z,97.96
2022-10-08T06:01:24.149Z,97.74
2022-10-08T06:03:51.338Z,97.78
2022-10-08T06:06:18.158Z,97.51
2022-10-08T06:08:45.200Z,97.93
2022-10-08T06:11:11.617Z,98.83
2022-10-08T06:13:38.205Z,98.76
2022-10-08T06:16:07.505Z,100.00
2022-10-08T06:18:37.212Z,100.00
2022-10-08T06:21:15.158Z,100.00
2022-10-08T06:23:47.409Z,99.68
2022-10-08T06:26:14.649Z,99.57
2022-10-08T06:28:41.311Z,100.00
2022-10-08T06:31:08.490Z,100.00
2022-10-08T06:33:35.517Z,100.00
2022-10-08T06:36:06.147Z,100.00
2022-10-08T06:38:33.794Z,100.00
2022-10-08T06:41:00.503Z,100.00
2022-10-08T06:43:26.899Z,100.00
2022-10-08T06:45:53.337Z,100.00
2022-10-08T06:48:23.170Z,100.00
2022-10-08T06:50:58.030Z,100.00
2022-10-08T06:53:24.390Z,100.00
2022-10-08T06:55:56.177Z,100.00
2022-10-08T06:58:22.575Z,100.00
2022-10-08T07:00:49.053Z,100.00
2022-10-08T07:03:15.646Z,100.00
2022-10-08T07:05:43.802Z,100.00
2022-10-08T07:08:10.153Z,100.00
2022-10-08T07:10:36.722Z,100.00
2022-10-08T07:13:03.225Z,100.00
2022-10-08T07:15:31.144Z,100.00
2022-10-08T07:17:57.505Z,100.00
2022-10-08T07:20:23.884Z,100.00
2022-10-08T07:22:50.616Z,100.00
2022-10-08T07:25:17.009Z,100.00
2022-10-08T07:27:45.087Z,100.00
2022-10-08T07:30:11.794Z,100.00
2022-10-08T07:32:38.196Z,100.00
2022-10-08T07:35:04.950Z,100.00
2022-10-08T07:37:31.316Z,100.00
2022-10-08T07:39:57.734Z,100.00
2022-10-08T07:42:24.175Z,100.00
2022-10-08T07:44:50.530Z,100.00
2022-10-08T07:47:16.907Z,100.00
2022-10-08T07:49:43.622Z,100.00
2022-10-08T07:52:10.289Z,100.00
2022-10-08T07:54:36.731Z,100.00
2022-10-08T07:57:03.106Z,100.00
2022-10-08T07:59:29.458Z,100.00
2022-10-08T08:01:56.080Z,100.00
2022-10-08T08:04:25.124Z,100.00
2022-10-08T08:06:52.388Z,100.00
2022-10-08T08:09:19.117Z,100.00
2022-10-08T08:11:47.212Z,100.00
2022-10-08T08:14:13.618Z,100.00
2022-10-08T08:16:40.273Z,100.00
2022-10-08T08:19:07.145Z,100.00
2022-10-08T08:21:38.445Z,100.00
2022-10-08T08:24:09.382Z,100.00
2022-10-08T08:26:38.764Z,100.00
2022-10-08T08:29:08.028Z,100.00
2022-10-08T08:31:38.306Z,100.00
2022-10-08T08:34:08.504Z,100.00
2022-10-08T08:36:37.923Z,100.00
2022-10-08T08:39:05.927Z,100.00
2022-10-08T08:41:45.381Z,100.00
2022-10-08T08:44:17.052Z,100.00
2022-10-08T08:46:52.585Z,100.00
2022-10-08T08:49:57.184Z,100.00
2022-10-08T08:52:26.382Z,100.00
2022-10-08T08:54:54.541Z,100.00
2022-10-08T08:57:40.617Z,100.00
2022-10-08T09:00:17.876Z,100.00
2022-10-08T09:02:55.575Z,100.00
2022-10-08T09:05:25.104Z,100.00
2022-10-08T09:07:57.598Z,100.00
2022-10-08T09:10:37.574Z,100.00
2022-10-08T09:13:04.236Z,100.00
2022-10-08T09:15:34.563Z,100.00
2022-10-08T09:18:02.845Z,100.00
2022-10-08T09:20:30.621Z,100.00
2022-10-08T09:22:57.737Z,100.00
2022-10-08T09:25:32.867Z,100.00
2022-10-08T09:28:01.302Z,100.00
2022-10-08T09:30:29.417Z,100.00
2022-10-08T09:33:02.320Z,100.00
2022-10-08T09:35:31.171Z,100.00
2022-10-08T09:37:59.920Z,100.00
2022-10-08T09:40:29.882Z,100.00
2022-10-08T09:43:16.661Z,100.00
2022-10-08T09:45:48.816Z,100.00
2022-10-08T09:48:26.903Z,100.00
2022-10-08T09:51:00.909Z,100.00
2022-10-08T09:53:39.979Z,100.00
2022-10-08T09:56:08.335Z,100.00
2022-10-08T09:58:47.711Z,100.00
2022-10-08T10:01:16.605Z,100.00
2022-10-08T10:03:53.656Z,100.00
2022-10-08T10:06:36.464Z,100.00
2022-10-08T10:09:11.638Z,100.00
2022-10-08T10:11:43.076Z,100.00
2022-10-08T10:14:21.443Z,100.00
2022-10-08T10:16:54.622Z,100.00
2022-10-08T10:19:28.958Z,100.00
2022-10-08T10:22:12.078Z,100.00
2022-10-08T10:25:04.137Z,100.00
2022-10-08T10:27:42.155Z,100.00
2022-10-08T10:30:21.920Z,100.00
2022-10-08T10:32:58.570Z,100.00
2022-10-08T10:35:28.697Z,100.00
2022-10-08T10:38:13.293Z,100.00
2022-10-08T10:40:47.113Z,100.00
2022-10-08T10:43:28.481Z,100.00
2022-10-08T10:46:01.845Z,100.00
2022-10-08T10:48:29.212Z,100.00
2022-10-08T10:51:21.401Z,100.00
2022-10-08T10:54:05.214Z,100.00
2022-10-08T10:56:38.855Z,100.00
2022-10-08T10:59:26.679Z,100.00
2022-10-08T11:02:20.811Z,100.00
2022-10-08T11:05:01.390Z,100.00
2022-10-08T11:07:32.705Z,100.00
2022-10-08T11:10:21.946Z,100.00
2022-10-08T11:13:00.799Z,100.00
2022-10-08T11:15:40.868Z,100.00
2022-10-08T11:18:22.514Z,100.00
2022-10-08T11:21:16.965Z,100.00
2022-10-08T11:24:20.686Z,100.00
2022-10-08T11:27:24.507Z,100.00
2022-10-08T11:30:14.164Z,100.00
2022-10-08T11:32:50.560Z,99.54
2022-10-08T11:35:23.199Z,100.00
2022-10-08T11:37:58.503Z,99.85
2022-10-08T11:40:33.884Z,99.12
2022-10-08T11:43:07.372Z,98.04
2022-10-08T11:45:37.432Z,94.25
2022-10-08T11:48:30.533Z,91.04
2022-10-08T11:51:18.866Z,91.46
2022-10-08T11:54:09.783Z,91.64
2022-10-08T11:56:40.085Z,87.09
2022-10-08T11:59:15.909Z,88.00
2022-10-08T12:01:51.111Z,88.33
2022-10-08T12:04:30.646Z,86.95
2022-10-08T12:07:25.880Z,88.85
2022-10-08T12:10:01.345Z,89.26
2022-10-08T12:12:49.134Z,87.73
2022-10-08T12:15:24.690Z,86.74
2022-10-08T12:17:56.760Z,87.09
2022-10-08T12:20:24.426Z,88.46
2022-10-08T12:23:03.085Z,88.15
2022-10-08T12:26:01.173Z,86.55
2022-10-08T12:28:35.355Z,88.11
2022-10-08T12:31:16.224Z,86.96
2022-10-08T12:33:42.800Z,86.10
2022-10-08T12:36:21.289Z,87.75
2022-10-08T12:39:06.353Z,85.87
2022-10-08T12:42:01.565Z,85.14
2022-10-08T12:44:37.846Z,87.69
2022-10-08T12:47:23.915Z,86.83
2022-10-08T12:50:04.768Z,85.75
2022-10-08T12:52:37.167Z,84.75
2022-10-08T12:55:06.124Z,85.20
2022-10-08T12:57:39.340Z,82.75
2022-10-08T13:00:20.046Z,81.98
2022-10-08T13:03:05.746Z,82.28
2022-10-08T13:05:35.526Z,82.59
2022-10-08T13:08:20.506Z,82.69
2022-10-08T13:10:46.939Z,82.68
2022-10-08T13:13:38.134Z,84.11
2022-10-08T13:16:07.645Z,82.17
2022-10-08T13:18:35.622Z,79.82
2022-10-08T13:21:08.049Z,79.72
2022-10-08T13:23:40.373Z,82.22
2022-10-08T13:26:37.679Z,84.79
2022-10-08T13:29:17.049Z,82.85
2022-10-08T13:31:43.989Z,79.08
2022-10-08T13:34:16.154Z,78.51
2022-10-08T13:36:52.360Z,78.66
2022-10-08T13:39:25.641Z,80.46
2022-10-08T13:41:58.213Z,77.11
2022-10-08T13:44:25.923Z,76.80
2022-10-08T13:46:52.629Z,78.00
2022-10-08T13:49:25.529Z,79.48
2022-10-08T13:51:52.427Z,78.84
2022-10-08T13:54:31.208Z,77.26
2022-10-08T13:56:58.109Z,77.73
2022-10-08T13:59:29.595Z,77.29
2022-10-08T14:01:57.047Z,76.68
2022-10-08T14:04:23.511Z,76.90
2022-10-08T14:06:52.743Z,77.50
2022-10-08T14:09:22.469Z,79.46
2022-10-08T14:11:55.470Z,80.78
2022-10-08T14:14:24.038Z,81.42
2022-10-08T14:16:51.326Z,79.26
2022-10-08T14:19:18.260Z,80.22
2022-10-08T14:21:44.929Z,80.13
2022-10-08T14:24:12.201Z,81.67
2022-10-08T14:26:38.770Z,78.97
2022-10-08T14:29:05.347Z,77.92
2022-10-08T14:31:31.908Z,78.00
2022-10-08T14:33:58.372Z,76.07
2022-10-08T14:36:31.708Z,73.13
2022-10-08T14:38:58.140Z,73.24
2022-10-08T14:41:25.556Z,73.46
2022-10-08T14:43:52.136Z,72.10
2022-10-08T14:46:18.617Z,71.69
2022-10-08T14:48:45.182Z,71.64
2022-10-08T14:51:12.418Z,72.44
2022-10-08T14:53:39.141Z,72.50
2022-10-08T14:56:12.525Z,72.09
2022-10-08T14:58:39.496Z,72.73
2022-10-08T15:01:06.157Z,73.27
2022-10-08T15:03:32.672Z,74.16
2022-10-08T15:06:00.362Z,74.62
2022-10-08T15:08:27.986Z,74.50
2022-10-08T15:10:54.409Z,73.79
2022-10-08T15:13:21.068Z,74.37
2022-10-08T15:15:47.483Z,75.51
2022-10-08T15:18:14.277Z,75.42
2022-10-08T15:20:40.742Z,75.83
2022-10-08T15:23:09.496Z,76.25
2022-10-08T15:25:36.201Z,76.00
2022-10-08T15:28:02.645Z,76.50
2022-10-08T15:30:29.037Z,77.89
2022-10-08T15:32:55.474Z,78.66
2022-10-08T15:35:22.508Z,78.20
2022-10-08T15:37:48.890Z,77.40
2022-10-08T15:40:15.392Z,77.40
2022-10-08T15:42:41.793Z,77.16
2022-10-08T15:45:08.515Z,77.32
2022-10-08T15:47:35.039Z,76.91
2022-10-08T15:50:01.880Z,77.48
2022-10-08T15:52:28.359Z,77.43
2022-10-08T15:54:54.811Z,78.46
2022-10-08T15:57:21.278Z,79.40
2022-10-08T15:59:47.835Z,79.61
2022-10-08T16:02:17.426Z,80.73
2022-10-08T16:04:53.199Z,81.34
2022-10-08T16:07:20.040Z,82.30
2022-10-08T16:09:46.422Z,83.62
2022-10-08T16:12:13.096Z,84.76
2022-10-08T16:14:39.472Z,85.36
2022-10-08T16:17:05.924Z,86.43
2022-10-08T16:19:32.351Z,86.89
2022-10-08T16:21:58.833Z,87.82
2022-10-08T16:24:25.264Z,88.43
2022-10-08T16:26:52.148Z,88.96
2022-10-08T16:29:18.602Z,88.90
2022-10-08T16:31:46.744Z,89.75
2022-10-08T16:34:18.877Z,89.67
2022-10-08T16:36:47.920Z,89.95
2022-10-08T16:39:17.957Z,90.44
2022-10-08T16:41:44.884Z,90.52
2022-10-08T16:44:14.460Z,90.96
2022-10-08T16:46:48.343Z,91.00
2022-10-08T16:49:23.680Z,90.92
2022-10-08T16:51:55.738Z,90.71
2022-10-08T16:54:22.431Z,90.73
2022-10-08T16:56:48.879Z,91.28
2022-10-08T16:59:20.582Z,91.17
2022-10-08T17:01:49.169Z,91.06
2022-10-08T17:04:17.162Z,90.98
2022-10-08T17:06:44.058Z,91.48
2022-10-08T17:09:11.478Z,91.19
2022-10-08T17:11:38.544Z,91.45
2022-10-08T17:14:07.504Z,91.78
2022-10-08T17:16:35.626Z,91.56
2022-10-08T17:19:02.640Z,91.95
2022-10-08T17:21:30.140Z,91.96
2022-10-08T17:23:58.105Z,91.71
2022-10-08T17:26:26.550Z,91.34
2022-10-08T17:28:53.191Z,91.75
2022-10-08T17:31:25.444Z,91.06
2022-10-08T17:33:52.512Z,91.34
2022-10-08T17:36:21.693Z,91.54
2022-10-08T17:38:52.605Z,90.93
2022-10-08T17:41:25.142Z,91.34
2022-10-08T17:43:52.693Z,91.67
2022-10-08T17:46:25.523Z,91.54
2022-10-08T17:48:52.440Z,91.52
2022-10-08T17:51:21.658Z,91.14
2022-10-08T17:54:02.519Z,90.85
2022-10-08T17:56:29.533Z,90.74
2022-10-08T17:58:56.843Z,90.76
2022-10-08T18:01:34.728Z,90.73
2022-10-08T18:04:06.867Z,90.50
2022-10-08T18:06:35.954Z,90.18
2022-10-08T18:09:05.330Z,90.35
2022-10-08T18:11:37.024Z,90.35
2022-10-08T18:14:05.564Z,90.42
2022-10-08T18:16:33.101Z,90.23
2022-10-08T18:19:01.847Z,90.33
2022-10-08T18:21:31.868Z,90.56
2022-10-08T18:23:59.022Z,90.68
2022-10-08T18:26:27.889Z,90.71
2022-10-08T18:28:57.044Z,90.55
2022-10-08T18:31:26.222Z,90.90
2022-10-08T18:33:58.674Z,90.71
2022-10-08T18:36:30.152Z,90.16
2022-10-08T18:39:02.371Z,90.33
2022-10-08T18:41:38.629Z,89.96
2022-10-08T18:44:06.721Z,90.08
2022-10-08T18:46:35.870Z,90.13
2022-10-08T18:49:02.679Z,90.00
2022-10-08T18:51:29.667Z,89.83
2022-10-08T18:53:57.352Z,89.74
2022-10-08T18:56:29.903Z,90.05
2022-10-08T18:59:01.647Z,89.97
2022-10-08T19:01:31.174Z,89.50
2022-10-08T19:03:59.621Z,89.61
2022-10-08T19:06:32.257Z,89.53
2022-10-08T19:09:00.339Z,89.75
2022-10-08T19:11:37.683Z,89.86
2022-10-08T19:14:08.610Z,90.17
2022-10-08T19:16:36.497Z,90.00
2022-10-08T19:19:05.678Z,89.10
2022-10-08T19:21:33.945Z,88.94
2022-10-08T19:24:01.069Z,89.47
2022-10-08T19:26:30.272Z,89.50
2022-10-08T19:28:57.532Z,89.42
2022-10-08T19:31:32.246Z,88.87
2022-10-08T19:34:01.780Z,88.74
2022-10-08T19:36:31.872Z,88.73
2022-10-08T19:39:07.499Z,88.49
2022-10-08T19:41:33.958Z,88.64
2022-10-08T19:44:00.568Z,89.01
2022-10-08T19:46:28.198Z,89.08
2022-10-08T19:48:57.911Z,89.32
2022-10-08T19:51:25.542Z,88.95
2022-10-08T19:53:52.758Z,88.39
2022-10-08T19:56:20.842Z,88.06
2022-10-08T19:58:49.622Z,87.70
2022-10-08T20:01:18.556Z,88.10
2022-10-08T20:03:45.030Z,88.53
2022-10-08T20:06:13.524Z,88.59
2022-10-08T20:08:40.126Z,88.83
2022-10-08T20:11:13.273Z,88.65
2022-10-08T20:13:40.790Z,88.58
2022-10-08T20:16:10.093Z,88.55
2022-10-08T20:18:36.988Z,89.40
2022-10-08T20:21:05.776Z,89.08
2022-10-08T20:23:32.854Z,88.99
2022-10-08T20:26:14.854Z,88.69
2022-10-08T20:28:41.598Z,88.73
2022-10-08T20:31:31.915Z,89.72
2022-10-08T20:34:00.814Z,90.09
2022-10-08T20:36:28.284Z,90.63
2022-10-08T20:38:54.845Z,90.83
2022-10-08T20:41:24.468Z,91.38
2022-10-08T20:43:55.917Z,90.86
2022-10-08T20:46:22.800Z,90.37
2022-10-08T20:48:49.222Z,91.12
2022-10-08T20:51:18.544Z,90.14
2022-10-08T20:53:56.839Z,89.98
2022-10-08T20:56:24.137Z,89.93
2022-10-08T20:58:50.727Z,89.00
2022-10-08T21:01:20.025Z,88.84
2022-10-08T21:03:47.549Z,88.97
2022-10-08T21:06:16.694Z,89.04
2022-10-08T21:08:45.293Z,89.09
2022-10-08T21:11:14.381Z,89.71
2022-10-08T21:13:40.956Z,89.52
2022-10-08T21:16:19.943Z,91.19
2022-10-08T21:18:51.544Z,91.27
2022-10-08T21:21:18.570Z,91.55
2022-10-08T21:23:45.689Z,90.86
2022-10-08T21:26:20.794Z,90.88
2022-10-08T21:28:49.232Z,92.18
2022-10-08T21:31:17.360Z,92.11
2022-10-08T21:33:46.188Z,91.45
2022-10-08T21:36:15.957Z,90.83
2022-10-08T21:38:42.986Z,90.17
2022-10-08T21:41:12.596Z,89.60
2022-10-08T21:43:47.011Z,89.09
2022-10-08T21:46:19.607Z,89.59
2022-10-08T21:48:46.844Z,89.60
2022-10-08T21:51:16.928Z,89.48
2022-10-08T21:53:52.007Z,89.64
2022-10-08T21:56:22.148Z,90.28
2022-10-08T21:58:51.041Z,90.49
2022-10-08T22:01:35.377Z,90.36
2022-10-08T22:04:03.361Z,90.46
2022-10-08T22:06:32.123Z,89.61
2022-10-08T22:08:59.126Z,90.36
2022-10-08T22:11:25.929Z,90.21
2022-10-08T22:13:52.882Z,89.85
2022-10-08T22:16:21.641Z,89.08
2022-10-08T22:18:48.543Z,89.19
2022-10-08T22:21:17.838Z,88.60
2022-10-08T22:23:44.259Z,89.50
2022-10-08T22:26:14.239Z,90.26
2022-10-08T22:28:40.866Z,89.48
2022-10-08T22:31:09.627Z,89.87
2022-10-08T22:33:36.734Z,89.11
2022-10-08T22:36:05.405Z,89.73
2022-10-08T22:38:33.930Z,88.82
2022-10-08T22:41:19.232Z,89.04
2022-10-08T22:43:46.092Z,88.37
2022-10-08T22:46:19.199Z,88.50
2022-10-08T22:48:46.206Z,88.34
2022-10-08T22:51:18.348Z,88.27
2022-10-08T22:53:45.645Z,88.21
2022-10-08T22:56:14.890Z,87.59
2022-10-08T22:58:41.333Z,86.59
2022-10-08T23:01:10.761Z,87.32
2022-10-08T23:03:38.117Z,88.22
2022-10-08T23:06:06.236Z,87.52
2022-10-08T23:08:33.953Z,87.57
2022-10-08T23:11:01.136Z,88.09
2022-10-08T23:13:28.326Z,87.18
2022-10-08T23:16:05.782Z,88.66
2022-10-08T23:18:33.776Z,87.57
2022-10-08T23:21:02.331Z,87.71
2022-10-08T23:23:29.096Z,87.77
2022-10-08T23:26:02.197Z,87.49
2022-10-08T23:28:29.941Z,87.98
2022-10-08T23:31:06.150Z,87.17
2022-10-08T23:33:32.685Z,87.59
2022-10-08T23:35:59.154Z,87.55
2022-10-08T23:38:25.596Z,87.91
2022-10-08T23:40:52.068Z,87.34
2022-10-08T23:43:18.536Z,87.46
2022-10-08T23:45:45.009Z,86.59
2022-10-08T23:48:11.482Z,86.96
2022-10-08T23:50:38.380Z,87.13
2022-10-08T23:53:05.058Z,87.15
2022-10-08T23:55:31.452Z,87.65
2022-10-08T23:57:57.859Z,86.76
